createdAt,value
2022-12-15T05:57:20.207Z,67.69
2022-12-15T09:01:30.508Z,68.49
2022-12-15T13:30:36.697Z,68.79
2022-12-15T13:35:36.571Z,68.46
2022-12-15T13:40:47.898Z,68.55
2022-12-15T13:45:57.290Z,68.50
2022-12-15T13:51:28.577Z,68.36
2022-12-15T14:02:33.937Z,68.17
2022-12-15T14:07:36.450Z,67.99
2022-12-15T14:12:34.102Z,68.02
2022-12-15T14:17:35.944Z,68.07
2022-12-15T14:27:45.150Z,67.86
2022-12-15T14:32:54.915Z,67.87
2022-12-15T14:37:52.563Z,67.93
2022-12-15T14:42:50.648Z,67.92
2022-12-15T14:48:39.396Z,67.58
2022-12-15T14:53:23.839Z,67.83
2022-12-15T14:58:33.039Z,67.38
2022-12-15T15:03:42.284Z,67.19
2022-12-15T16:18:01.290Z,66.93
2022-12-15T16:49:05.508Z,66.70
2022-12-15T16:54:15.895Z,67.08
2022-12-15T16:59:33.153Z,66.84
2022-12-15T17:04:30.613Z,66.90
2022-12-15T17:09:27.148Z,66.66
2022-12-15T17:14:23.594Z,66.98
2022-12-15T17:19:21.506Z,66.75
2022-12-15T17:24:20.053Z,66.88
2022-12-15T17:29:24.495Z,66.78
2022-12-15T17:34:32.718Z,66.53
2022-12-15T17:39:29.765Z,66.67
2022-12-15T17:44:36.716Z,67.00
2022-12-15T17:49:36.616Z,66.84
2022-12-15T17:54:33.873Z,67.03
2022-12-15T17:59:32.219Z,66.84
2022-12-15T18:04:28.776Z,66.87
2022-12-15T18:09:25.741Z,66.98
2022-12-15T18:14:24.534Z,66.66
2022-12-15T18:19:23.460Z,66.70
2022-12-15T18:24:21.686Z,66.60
2022-12-15T18:29:20.710Z,66.63
2022-12-15T18:34:21.440Z,66.46
2022-12-15T18:39:19.867Z,66.29
2022-12-15T18:44:28.920Z,66.39
2022-12-15T18:54:56.723Z,66.08
2022-12-15T19:11:46.460Z,66.44
2022-12-15T19:17:05.973Z,66.54
2022-12-15T19:22:35.710Z,66.55
2022-12-15T19:27:33.479Z,66.07
2022-12-15T22:31:05.117Z,66.50
